NACIONALNO OTVORENO PRVENSTVO HRVATSKE U KARTINGU
1. NAGRADA VINKOVAČKIH JESENI '08
Vinkovci, 21.09.2008.

KLASA I - 1. UTRKA
Poz. S.b. Vozač Klub Nac. Krug Vrijeme Zaostatak Bod.
1. 2 Muhammad Pličanić AK Info Kart HR 5 4:59,396 0:00,000 -
2. 3 Fran Tisaj KK Koprivnica HR 5 5:02,610 0:03,214 -
3. 6 Leo Grdić Podravina Koprivnica HR 5 5:03,217 0:03,821 -
4. 8 Mia Matrljan Podravina Koprivnica HR 5 5:07,803 0:08,407 -
5. 21 Adrian Sekulić Podravina Koprivnica HR 5 5:22,332 0:22,936 -
6. 4 Matija Kovačić KK 1 Zagreb HR 5 5:39,170 0:39,774 -
 
KLASA II - 1. UTRKA
Poz. S.b. Vozač Klub Nac. Krug Vrijeme Zaostatak Bod.
1. 25 Martin Kodrić KK 1 Zagreb HR 8 6:38,782 0:00,000 20
2. 3 Juraj Kovačić KK 1 Zagreb HR 8 6:39,432 0:00,650 15
3. 15 Benjamin Žganec KK 1 Zagreb HR 8 6:44,229 0:05,447 12
4. 6 Mislav Mikulec AK Info Kart HR 8 6:44,238 0:05,456 10
5. 21 Damian Sekulić KU Novi Marof HR 8 6:44,430 0:05,648 8
6. 2 Moni Petrović AK Speedy HR 8 6:46,964 0:08,182 6
7. 22 Luka Đurđ KK Koprivnica HR 8 7:14,235 0:35,453 4
8. 26 Corina Lukša AMK Cobra HR 8 7:34,467 0:55,685 3
9. 12 Dino Paleka KK Koprivnica HR 7 6:51,931 1 krug 2
10. 24 Luka Moslavac AMK Cobra HR 7 6:55,498 1 krug 1
11. 23 Edi Žilić AMK Cobra HR 7 6:38,390 1 krug -
 
KLASA II - 2. UTRKA
Poz. S.b. Vozač Klub Nac. Krug Vrijeme Zaostatak Bod.
1. 3 Juraj Kovačić KK 1 Zagreb HR 8 6:36,407 0:00,000 20
2. 25 Martin Kodrić KK 1 Zagreb HR 8 6:36,871 0:00,464 15
3. 6 Mislav Mikulec AK Info Kart HR 8 6:42,132 0:05,725 12
4. 15 Benjamin Žganec KK 1 Zagreb HR 8 6:44,291 0:07,884 10
5. 21 Damian Sekulić KU Novi Marof HR 8 6:48,658 0:12,251 8
6. 2 Moni Petrović AK Speedy HR 8 6:51,556 0:15,149 6
7. 22 Luka Đurđ KK Koprivnica HR 8 7:06,094 0:29,687 4
8. 12 Dino Paleka KK Koprivnica HR 8 7:15,095 0:38,688 3
9. 26 Corina Lukša AMK Cobra HR 8 7:28,328 0:51,921 2
10. 24 Luka Moslavac AMK Cobra HR 7 6:48,712 1 krug 1
11. 23 Edi Žilić AMK Cobra HR 6 5:50,965 2 kruga -
 
KLASA V - 1. UTRKA
Poz. S.b. Vozač Klub Nac. Krug Vrijeme Zaostatak Bod.
1. 7 Tomislav Pavlić KK 1 Zagreb HR 14 10:23,584 0:00,000 20
2. 424 Sanjin Trope AK Quickly HR 14 10:40,769 0:17,185 15
3. 405 Borna Vlašić Podravina Koprivnica HR 14 10:44,754 0:21,170 12
4. 25 Antun Bošnjak KK Koprivnica HR 14 11:05,227 0:41,643 10
5. 22 Nikola Belohradski Klakson HR 13 10:26,750 1 krug 8
 
KLASA V - 2. UTRKA
Poz. S.b. Vozač Klub Nac. Krug Vrijeme Zaostatak Bod.
1. 405 Borna Vlašić Podravina Koprivnica HR 14 9:47,649 0:00,000 20
2. 22 Nikola Belohradski Klakson HR 14 9:47,965 0:00,316 15
3. 7 Tomislav Pavlić KK 1 Zagreb HR 14 9:51,332 0:03,683 12
4. 424 Sanjin Trope AK Quickly HR 14 9:55,525 0:07,876 10
5. 25 Antun Bošnjak KK Koprivnica HR 14 10:02,165 0:14,516 8
 
KLASA VII - 1. UTRKA
Poz. S.b. Vozač Klub Nac. Krug Vrijeme Zaostatak Bod.
1. 2 Damir Nakić KK 1 Zagreb HR 16 11:17,804 0:00,000 20
2. 35 Igor Cvetko SAK Split HR 16 11:27,344 0:09,540 15
3. 1 Ratko Medenec KK 1 Zagreb HR 16 11:27,794 0:09,990 12
4. 3 Miljenko Antolić KK 1 Zagreb HR 16 11:28,926 0:11,122 10
5. 10 Zlatko Banić SAK Split HR 15 11:32,612 0:14,808 8
6. 5 Tomislav Lovrenc AMK Cobra HR 13 10:10,268 3 kruga 6
 
KLASA VII - 2. UTRKA
Poz. S.b. Vozač Klub Nac. Krug Vrijeme Zaostatak Bod.
1. 2 Damir Nakić KK 1 Zagreb HR 16 11:02,885 0:00,000 20
2. 1 Ratko Medenec KK 1 Zagreb HR 16 11:10,711 0:07,826 15
3. 3 Miljenko Antolić KK 1 Zagreb HR 16 11:16,774 0:13,889 12
4. 35 Igor Cvetko SAK Split HR 16 11:20,753 0:17,868 10
5. 10 Zlatko Banić SAK Split HR 16 11:46,336 0:43,451 8
- 5 Tomislav Lovrenc AMK Cobra HR 0 nije startao -
 
KLASA VIII - 1. UTRKA
Poz. S.b. Vozač Klub Nac. Krug Vrijeme Zaostatak Bod.
1. 13 Matija Momčilović Podravina Koprivnica HR 14 10:02,325 0:00,000 20
2. 6 Kristijan Habulin KK 1 Zagreb HR 14 10:07,262 0:04,937 15
3. 4 Karlo Golub KK 1 Zagreb HR 14 10:08,432 0:06,107 12
4. 74 Renco Majdak KK 1 Zagreb HR 14 10:36,091 0:33,766 10
5. 1 Sven Gorup AMD Zanatlija HR 14 10:38,841 0:36,516 8
6. 2 Tomislav Srbljinović KK 1 Zagreb HR 14 10:39,148 0:36,823 6
7. 617 Hinko Pavlec KU Novi Marof HR 14 10:40,197 0:37,872 4
 
KLASA VIII - 2. UTRKA
Poz. S.b. Vozač Klub Nac. Krug Vrijeme Zaostatak Bod.
1. 13 Matija Momčilović Podravina Koprivnica HR 14 9:30,833 0:00,000 20
2. 6 Kristijan Habulin KK 1 Zagreb HR 14 9:37,452 0:06,619 15
3. 74 Renco Majdak KK 1 Zagreb HR 14 9:41,055 0:10,222 12
4. 4 Karlo Golub KK 1 Zagreb HR 14 9:41,624 0:10,791 10
5. 2 Tomislav Srbljinović KK 1 Zagreb HR 14 9:51,213 0:20,380 8
6. 617 Hinko Pavlec KU Novi Marof HR 14 9:52,635 0:21,802 6
7. 1 Sven Gorup AMD Zanatlija HR 14 10:10,600 0:39,767 4
 
KLASA IX - 1. UTRKA
Poz. S.b. Vozač Klub Nac. Krug Vrijeme Zaostatak Bod.
1. 3 Samir Smailagić AK Info Kart HR 13 10:02,303 0:00,000 20
2. 5 Hrvoje Tisaj KK Koprivnica HR 13 10:02,802 0:00,499 15
3. 13 Tomislav Kelbl KK Koprivnica HR 13 10:23,416 0:21,113 12
4. 17 Alan Vorkapić KK Koprivnica HR 13 10:35,047 0:32,744 10
5. 7 Ninoslav Banić KK 1 Zagreb HR 13 10:35,380 0:33,077 8
6. 15 Siniša Kozjak KK Koprivnica HR 13 10:36,443 0:34,140 6
 
KLASA IX - 2. UTRKA
Poz. S.b. Vozač Klub Nac. Krug Vrijeme Zaostatak Bod.
1. 5 Hrvoje Tisaj KK Koprivnica HR 13 9:54,128 0:00,000 20
2. 3 Samir Smailagić AK Info Kart HR 13 9:58,003 0:03,875 15
3. 13 Tomislav Kelbl KK Koprivnica HR 13 10:04,825 0:10,697 12
4. 17 Alan Vorkapić KK Koprivnica HR 13 10:06,393 0:12,265 10
5. 7 Ninoslav Banić KK 1 Zagreb HR 13 10:13,856 0:19,728 8
6. 15 Siniša Kozjak KK Koprivnica HR 13 10:37,954 0:43,826 6
 
PRVENSTVO HRVATSKE